Time;durP1;ratioP1;P1;durP2;ratioP2;P2;SDS_P1;SDS_P2;PMS_P1;PMS_P2;Temp;Humidity;BMP_temperature;BMP_pressure;BME280_temperature;BME280_humidity;BME280_pressure;Samples;Min_cycle;Max_cycle;Signal;HPM_P1;HPM_P2
2021/08/18 00:00:15;;;;;;;14.85;8.52;;;;;;;10.57;100.00;96059.59;1023336;29;20085;-68
2021/08/18 00:00:46;;;;;;;11.82;7.50;;;;;;;10.53;100.00;96053.28;1027175;28;20046;-68
2021/08/18 00:01:17;;;;;;;14.40;7.78;;;;;;;10.61;100.00;96059.88;1031455;28;20746;-68
2021/08/18 00:01:48;;;;;;;13.05;7.88;;;;;;;10.59;100.00;96056.72;1022712;29;20054;-68
2021/08/18 00:02:18;;;;;;;16.90;9.00;;;;;;;10.59;100.00;96059.34;1020889;28;20286;-68
2021/08/18 00:02:49;;;;;;;14.15;8.57;;;;;;;10.59;100.00;96060.13;1023468;29;20031;-68
2021/08/18 00:03:19;;;;;;;11.05;7.60;;;;;;;10.57;100.00;96058.81;1023234;28;20070;-68
2021/08/18 00:03:49;;;;;;;12.63;7.97;;;;;;;10.58;100.00;96061.19;1031566;28;20097;-68
2021/08/18 00:04:20;;;;;;;18.00;8.90;;;;;;;10.50;100.00;96048.56;1035517;28;20058;-68
2021/08/18 00:04:52;;;;;;;12.80;8.25;;;;;;;10.58;100.00;96068.25;1035247;28;20200;-68
2021/08/18 00:05:22;;;;;;;13.35;7.97;;;;;;;10.57;100.00;96064.84;1031039;28;20595;-68
2021/08/18 00:05:53;;;;;;;12.32;7.53;;;;;;;10.57;100.00;96062.22;1030978;28;20301;-68
2021/08/18 00:06:23;;;;;;;12.02;7.35;;;;;;;10.57;100.00;96062.22;1035408;28;20056;-69
2021/08/18 00:06:54;;;;;;;14.55;8.68;;;;;;;10.55;100.00;96058.28;1031572;28;20436;-68
2021/08/18 00:07:24;;;;;;;14.88;8.70;;;;;;;10.55;100.00;96059.06;1031458;28;20030;-68
2021/08/18 00:07:54;;;;;;;13.57;8.07;;;;;;;10.55;100.00;96066.94;1031147;28;20022;-68
2021/08/18 00:08:25;;;;;;;12.93;8.15;;;;;;;10.50;100.00;96053.81;1031544;28;20491;-68
2021/08/18 00:08:56;;;;;;;12.60;7.35;;;;;;;10.56;100.00;96065.09;1031404;28;20026;-68
2021/08/18 00:09:26;;;;;;;14.90;7.85;;;;;;;10.56;100.00;96058.03;1027476;28;20032;-68
2021/08/18 00:09:56;;;;;;;12.35;7.47;;;;;;;10.49;100.00;96062.69;1027498;28;20030;-68
2021/08/18 00:10:28;;;;;;;14.07;7.80;;;;;;;10.49;100.00;96046.16;1031334;28;20412;-68
2021/08/18 00:10:58;;;;;;;14.55;8.57;;;;;;;10.56;100.00;96060.66;1027756;28;20764;-68
2021/08/18 00:11:29;;;;;;;14.07;8.32;;;;;;;10.56;100.00;96057.22;1031433;28;20368;-68
2021/08/18 00:11:59;;;;;;;15.82;8.27;;;;;;;10.57;100.00;96064.06;1026542;28;20109;-70
2021/08/18 00:12:30;;;;;;;13.93;8.73;;;;;;;10.57;100.00;96066.69;1027426;28;20158;-67
2021/08/18 00:13:00;;;;;;;15.13;8.07;;;;;;;10.57;100.00;96066.69;1031421;28;20018;-68
2021/08/18 00:13:31;;;;;;;14.68;8.00;;;;;;;10.56;100.00;96070.34;1031467;28;20017;-69
2021/08/18 00:14:01;;;;;;;14.95;8.32;;;;;;;10.56;100.00;96068.53;1035408;28;20640;-68
2021/08/18 00:14:32;;;;;;;15.63;8.57;;;;;;;10.57;100.00;96062.22;1035339;28;20026;-68
2021/08/18 00:15:04;;;;;;;15.20;8.48;;;;;;;10.57;100.00;96069.31;1039426;28;20479;-68
2021/08/18 00:15:34;;;;;;;13.05;8.18;;;;;;;10.49;100.00;96052.19;1035802;28;20699;-68
2021/08/18 00:16:05;;;;;;;11.95;7.68;;;;;;;10.55;100.00;96066.94;1031436;28;20731;-69
2021/08/18 00:16:35;;;;;;;13.48;7.88;;;;;;;10.52;100.00;96064.81;1031353;28;20504;-68
2021/08/18 00:17:06;;;;;;;14.82;7.95;;;;;;;10.53;100.00;96058.53;1031332;28;20026;-69
2021/08/18 00:17:36;;;;;;;14.50;7.97;;;;;;;10.57;100.00;96070.09;1027145;28;20191;-68
2021/08/18 00:18:07;;;;;;;13.15;8.48;;;;;;;10.50;100.00;96056.44;1030904;28;20038;-68
2021/08/18 00:18:37;;;;;;;15.95;8.73;;;;;;;10.57;100.00;96061.44;1027142;28;20137;-68
2021/08/18 00:19:08;;;;;;;15.07;7.90;;;;;;;10.56;100.00;96067.72;1027024;28;20098;-68
2021/08/18 00:19:38;;;;;;;15.55;8.43;;;;;;;10.56;100.00;96065.09;1031343;28;20014;-68
2021/08/18 00:20:09;;;;;;;13.73;8.27;;;;;;;10.56;100.00;96067.72;1031359;28;20507;-69
2021/08/18 00:20:40;;;;;;;12.30;7.90;;;;;;;10.56;100.00;96065.09;1027109;28;20086;-68
2021/08/18 00:21:10;;;;;;;14.65;7.90;;;;;;;10.57;100.00;96064.84;1022942;29;20023;-68
2021/08/18 00:21:41;;;;;;;16.35;8.48;;;;;;;10.58;100.00;96063.81;1026269;28;20015;-67
2021/08/18 00:22:11;;;;;;;12.80;7.03;;;;;;;10.58;100.00;96063.03;1026935;28;20023;-69
2021/08/18 00:22:42;;;;;;;14.20;8.20;;;;;;;10.55;100.00;96061.69;1022792;29;20027;-68
2021/08/18 00:23:13;;;;;;;15.23;8.20;;;;;;;10.57;100.00;96064.84;1022860;29;20046;-69
2021/08/18 00:23:45;;;;;;;15.18;8.70;;;;;;;10.58;100.00;96071.69;1022911;29;20290;-68
2021/08/18 00:24:15;;;;;;;14.73;8.20;;;;;;;10.57;100.00;96074.56;1022828;29;20605;-68
2021/08/18 00:24:46;;;;;;;16.08;8.07;;;;;;;10.54;100.00;96059.31;1019519;28;20271;-69
2021/08/18 00:25:16;;;;;;;15.20;8.55;;;;;;;10.51;100.00;96065.88;1027366;28;20066;-68
2021/08/18 00:25:47;;;;;;;14.35;8.68;;;;;;;10.52;100.00;96062.19;1027452;28;20015;-68
2021/08/18 00:26:17;;;;;;;16.50;8.60;;;;;;;10.56;100.00;96065.91;1031495;28;20091;-69
2021/08/18 00:26:48;;;;;;;14.27;7.95;;;;;;;10.55;100.00;96060.91;1026858;28;20105;-68
2021/08/18 00:27:18;;;;;;;13.35;8.15;;;;;;;10.52;100.00;96061.41;1019244;28;20032;-68
2021/08/18 00:27:49;;;;;;;14.30;8.45;;;;;;;10.57;100.00;96064.84;1022630;29;20062;-67
2021/08/18 00:28:19;;;;;;;18.38;8.05;;;;;;;10.56;100.00;96063.28;1029303;28;20489;-68
2021/08/18 00:28:50;;;;;;;14.32;7.95;;;;;;;10.58;100.00;96066.44;1031129;28;20033;-68
2021/08/18 00:29:20;;;;;;;17.52;8.73;;;;;;;10.58;100.00;96066.44;1031330;28;20440;-69
2021/08/18 00:29:51;;;;;;;17.55;9.30;;;;;;;10.59;100.00;96062.75;1031768;28;20023;-68
2021/08/18 00:30:21;;;;;;;15.35;8.55;;;;;;;10.58;100.00;96058.56;1035201;28;20030;-68
2021/08/18 00:30:52;;;;;;;18.23;8.85;;;;;;;10.55;100.00;96059.06;1026824;28;20030;-68
2021/08/18 00:31:23;;;;;;;14.88;8.80;;;;;;;10.60;100.00;96061.72;1023131;29;20489;-68
2021/08/18 00:31:54;;;;;;;16.63;9.18;;;;;;;10.57;100.00;96057.00;1025892;28;20062;-68
2021/08/18 00:32:25;;;;;;;14.70;8.35;;;;;;;10.62;100.00;96062.25;1026805;28;20207;-68
2021/08/18 00:32:55;;;;;;;13.90;8.98;;;;;;;10.64;100.00;96069.09;1023518;28;20271;-70
2021/08/18 00:33:26;;;;;;;17.13;9.10;;;;;;;10.62;100.00;96064.88;1027311;28;20045;-68
2021/08/18 00:33:56;;;;;;;17.55;9.48;;;;;;;10.63;100.00;96065.69;1031405;28;20018;-68
2021/08/18 00:34:27;;;;;;;17.10;8.98;;;;;;;10.65;100.00;96060.16;1035528;28;20026;-68
2021/08/18 00:34:57;;;;;;;19.77;10.27;;;;;;;10.68;100.00;96064.91;1034857;28;20052;-70
2021/08/18 00:35:28;;;;;;;17.48;9.27;;;;;;;10.67;100.00;96063.34;1039017;28;20079;-69
2021/08/18 00:35:58;;;;;;;16.52;8.15;;;;;;;10.64;100.00;96062.00;1034962;28;20049;-68
2021/08/18 00:36:29;;;;;;;12.65;7.47;;;;;;;10.59;100.00;96059.34;1031048;28;20026;-68
2021/08/18 00:36:59;;;;;;;14.40;8.68;;;;;;;10.62;100.00;96066.72;1031133;28;20018;-68
2021/08/18 00:37:30;;;;;;;12.40;7.40;;;;;;;10.52;100.00;96054.31;1027227;28;20082;-68
2021/08/18 00:38:00;;;;;;;17.20;8.48;;;;;;;10.57;100.00;96064.84;1027108;28;20083;-68
2021/08/18 00:38:31;;;;;;;15.25;8.63;;;;;;;10.57;100.00;96062.22;1029441;28;20030;-68
2021/08/18 00:39:01;;;;;;;17.58;8.57;;;;;;;10.51;100.00;96054.59;1023028;28;20035;-67
2021/08/18 00:39:32;;;;;;;15.35;8.23;;;;;;;10.59;100.00;96062.75;1023370;28;20426;-69
2021/08/18 00:40:03;;;;;;;16.48;9.43;;;;;;;10.60;100.00;96066.97;1027291;28;20396;-68
2021/08/18 00:40:33;;;;;;;11.77;7.78;;;;;;;10.59;100.00;96060.13;1027671;28;20034;-67
2021/08/18 00:41:04;;;;;;;13.95;8.27;;;;;;;10.59;100.00;96070.63;1030515;28;20836;-69
2021/08/18 00:41:35;;;;;;;11.75;7.53;;;;;;;10.55;100.00;96056.44;1032344;28;20022;-68
2021/08/18 00:42:05;;;;;;;14.55;9.10;;;;;;;10.57;100.00;96064.84;1038863;28;20108;-68
2021/08/18 00:42:36;;;;;;;13.98;7.78;;;;;;;10.57;100.00;96070.09;1036906;28;20014;-67
2021/08/18 00:43:06;;;;;;;11.77;7.95;;;;;;;10.59;100.00;96067.22;1039418;28;20014;-68
2021/08/18 00:43:37;;;;;;;13.75;7.97;;;;;;;10.53;100.00;96053.28;1039282;28;20056;-68
2021/08/18 00:44:07;;;;;;;16.15;9.93;;;;;;;10.57;100.00;96064.06;1038015;28;20045;-68
2021/08/18 00:44:38;;;;;;;15.63;8.45;;;;;;;10.51;100.00;96052.75;1035117;28;20030;-68
2021/08/18 00:45:09;;;;;;;15.95;8.98;;;;;;;10.55;100.00;96056.44;1031533;28;20026;-68
2021/08/18 00:45:40;;;;;;;15.95;8.13;;;;;;;10.49;100.00;96052.19;1030849;28;20895;-67
2021/08/18 00:46:10;;;;;;;14.23;8.18;;;;;;;10.47;100.00;96049.06;1024152;28;20015;-69
2021/08/18 00:46:52;;;;;;;14.18;8.45;;;;;;;10.51;100.00;96060.63;1027357;28;20030;-68
2021/08/18 00:47:22;;;;;;;16.58;8.68;;;;;;;10.55;100.00;96063.53;1022414;29;20051;-67
2021/08/18 00:47:53;;;;;;;14.90;8.43;;;;;;;10.53;100.00;96052.47;1027757;28;20688;-68
2021/08/18 00:48:23;;;;;;;15.63;8.02;;;;;;;10.56;100.00;96058.03;1031374;28;20029;-67
2021/08/18 00:48:54;;;;;;;17.83;9.13;;;;;;;10.57;100.00;96064.06;1027092;28;20030;-70
2021/08/18 00:49:25;;;;;;;16.52;9.30;;;;;;;10.55;100.00;96056.44;1027344;28;20046;-68
2021/08/18 00:49:57;;;;;;;15.82;8.57;;;;;;;10.54;100.00;96060.13;1027481;28;20026;-68
2021/08/18 00:50:28;;;;;;;14.05;8.52;;;;;;;10.51;100.00;96050.13;1032023;28;20281;-69
2021/08/18 00:50:58;;;;;;;15.88;9.18;;;;;;;10.59;100.00;96065.38;1023475;29;20267;-68
2021/08/18 00:51:29;;;;;;;15.88;8.57;;;;;;;10.61;100.00;96058.06;1023198;28;20299;-69
2021/08/18 00:51:59;;;;;;;16.30;8.60;;;;;;;10.59;100.00;96054.09;1022703;29;20061;-68
2021/08/18 00:52:30;;;;;;;15.20;8.88;;;;;;;10.61;100.00;96057.25;1026860;28;20197;-68
2021/08/18 00:53:00;;;;;;;14.77;8.65;;;;;;;10.61;100.00;96060.69;1027143;28;20054;-68
2021/08/18 00:53:32;;;;;;;17.17;9.48;;;;;;;10.61;100.00;96063.31;1023334;29;20043;-68
2021/08/18 00:54:02;;;;;;;17.15;9.48;;;;;;;10.62;100.00;96062.25;1020875;28;20114;-68
2021/08/18 00:54:33;;;;;;;14.48;8.48;;;;;;;10.58;100.00;96061.19;1023397;28;20725;-69
2021/08/18 00:55:04;;;;;;;17.27;8.90;;;;;;;10.62;100.00;96067.50;1019397;29;20052;-67
2021/08/18 00:55:34;;;;;;;15.68;8.65;;;;;;;10.63;100.00;96068.31;1018935;29;20035;-69
2021/08/18 00:56:05;;;;;;;18.42;9.00;;;;;;;10.58;100.00;96058.56;1031192;28;20034;-68
2021/08/18 00:56:35;;;;;;;15.60;8.77;;;;;;;10.63;100.00;96063.06;1026963;28;20066;-68
2021/08/18 00:57:06;;;;;;;16.17;9.15;;;;;;;10.56;100.00;96050.16;1019011;29;20016;-69
2021/08/18 00:57:37;;;;;;;19.23;9.13;;;;;;;10.57;100.00;96043.09;1026857;28;20046;-68
2021/08/18 00:58:08;;;;;;;17.50;9.93;;;;;;;10.64;100.00;96063.84;1031257;28;20018;-68
2021/08/18 00:58:39;;;;;;;16.40;9.40;;;;;;;10.64;100.00;96059.38;1023338;29;20089;-69
2021/08/18 00:59:10;;;;;;;18.05;9.18;;;;;;;10.65;100.00;96062.78;1023447;28;20338;-69
2021/08/18 00:59:40;;;;;;;16.30;9.15;;;;;;;10.65;100.00;96058.34;1027460;28;20014;-69
2021/08/18 01:00:15;;;;;;;19.35;9.90;;;;;;;10.66;100.00;96059.13;1027158;28;20019;-68
2021/08/18 01:00:45;;;;;;;19.52;9.43;;;;;;;10.60;100.00;96055.69;1030574;28;20026;-68
2021/08/18 01:01:16;;;;;;;15.20;9.00;;;;;;;10.67;100.00;96063.34;1035072;28;20343;-68
2021/08/18 01:01:46;;;;;;;17.88;9.68;;;;;;;10.67;100.00;96058.09;1034770;28;20018;-69
2021/08/18 01:02:17;;;;;;;17.77;9.43;;;;;;;10.67;100.00;96056.25;1026753;28;20058;-68
2021/08/18 01:02:48;;;;;;;16.65;9.15;;;;;;;10.70;100.00;96065.47;1027136;28;20119;-68
2021/08/18 01:03:18;;;;;;;17.33;9.25;;;;;;;10.68;100.00;96064.91;1035469;28;20038;-68
2021/08/18 01:03:49;;;;;;;14.70;9.20;;;;;;;10.70;100.00;96062.84;1027288;28;20038;-69
2021/08/18 01:04:19;;;;;;;17.30;10.00;;;;;;;10.63;100.00;96052.56;1034715;28;20566;-69
2021/08/18 01:04:50;;;;;;;18.13;9.38;;;;;;;10.65;100.00;96057.53;1022879;29;20043;-69
2021/08/18 01:05:22;;;;;;;19.50;10.15;;;;;;;10.72;100.00;96063.34;1023339;28;20019;-70
2021/08/18 01:05:52;;;;;;;19.77;9.80;;;;;;;10.72;100.00;96055.47;1026872;28;20058;-69
2021/08/18 01:06:23;;;;;;;17.05;9.13;;;;;;;10.72;100.00;96069.38;1030288;28;20281;-68
2021/08/18 01:06:53;;;;;;;21.70;9.77;;;;;;;10.67;100.00;96052.84;1031671;28;20041;-68
2021/08/18 01:07:24;;;;;;;18.15;10.18;;;;;;;10.73;100.00;96062.28;1027580;28;20161;-68
2021/08/18 01:07:56;;;;;;;18.90;10.23;;;;;;;10.68;100.00;96051.78;1035187;28;20451;-68
2021/08/18 01:08:26;;;;;;;16.67;9.73;;;;;;;10.77;100.00;96052.91;1027210;28;20058;-70
2021/08/18 01:08:58;;;;;;;16.73;10.05;;;;;;;10.77;100.00;96053.69;1027384;28;20737;-69
2021/08/18 01:09:29;;;;;;;18.25;9.50;;;;;;;10.77;100.00;96052.91;1029972;28;20576;-68
2021/08/18 01:09:59;;;;;;;18.70;10.23;;;;;;;10.68;100.00;96038.66;1031726;28;20265;-68
2021/08/18 01:10:32;;;;;;;17.90;9.30;;;;;;;10.70;100.00;96041.84;1035172;28;20443;-68
2021/08/18 01:11:02;;;;;;;19.98;9.98;;;;;;;10.77;100.00;96058.94;1031014;28;20019;-68
2021/08/18 01:11:39;;;;;;;19.00;9.27;;;;;;;10.76;100.00;96062.56;1030935;28;20831;-70
2021/08/18 01:12:11;;;;;;;17.63;9.32;;;;;;;10.76;100.00;96061.78;1028049;28;20050;-67
2021/08/18 01:12:41;;;;;;;18.15;9.05;;;;;;;10.70;100.00;96052.34;1031555;28;20270;-68
2021/08/18 01:13:12;;;;;;;18.08;9.63;;;;;;;10.74;100.00;96056.03;1035167;28;20888;-68
2021/08/18 01:13:44;;;;;;;21.10;9.93;;;;;;;10.73;100.00;96057.88;1031292;28;20046;-68
2021/08/18 01:14:15;;;;;;;17.30;10.02;;;;;;;10.74;100.00;96054.19;1026757;28;20027;-69
2021/08/18 01:14:45;;;;;;;15.15;9.48;;;;;;;10.73;100.00;96057.06;1022635;29;20267;-68
2021/08/18 01:15:17;;;;;;;17.45;10.55;;;;;;;10.73;100.00;96054.44;1022984;29;20271;-68
2021/08/18 01:15:48;;;;;;;19.42;10.10;;;;;;;10.74;100.00;96053.41;1023245;28;20433;-68
2021/08/18 01:16:18;;;;;;;18.98;10.35;;;;;;;10.69;100.00;96051.53;1027508;28;20273;-68
2021/08/18 01:16:49;;;;;;;19.17;9.43;;;;;;;10.65;100.00;96044.41;1035148;28;20042;-68
2021/08/18 01:17:19;;;;;;;19.50;10.65;;;;;;;10.73;100.00;96050.00;1026864;28;20420;-68
2021/08/18 01:17:51;;;;;;;17.80;9.93;;;;;;;10.73;100.00;96059.66;1022404;28;20027;-66
2021/08/18 01:18:22;;;;;;;19.40;10.27;;;;;;;10.72;100.00;96055.47;1027206;28;20027;-68
2021/08/18 01:18:52;;;;;;;17.48;10.52;;;;;;;10.73;100.00;96051.81;1027074;28;20266;-69
2021/08/18 01:19:23;;;;;;;19.58;9.82;;;;;;;10.74;100.00;96053.41;1027829;28;20026;-68
2021/08/18 01:19:53;;;;;;;20.42;10.48;;;;;;;10.72;100.00;96051.00;1031139;28;20026;-69
2021/08/18 01:20:29;;;;;;;22.13;10.45;;;;;;;10.73;100.00;96051.81;1031113;28;20392;-69
2021/08/18 01:21:00;;;;;;;19.52;9.85;;;;;;;10.73;100.00;96043.94;1030542;28;20049;-68
2021/08/18 01:21:39;;;;;;;20.63;10.73;;;;;;;10.74;100.00;96046.31;1027505;28;20262;-68
2021/08/18 01:22:10;;;;;;;19.23;10.95;;;;;;;10.73;100.00;96050.00;1037099;28;20030;-68
2021/08/18 01:22:41;;;;;;;20.42;9.90;;;;;;;10.70;100.00;96041.84;1036430;28;20265;-68
2021/08/18 01:23:12;;;;;;;21.15;10.00;;;;;;;10.73;100.00;96049.19;1034616;28;20025;-68
2021/08/18 01:23:43;;;;;;;17.92;9.93;;;;;;;10.75;100.00;96047.09;1030969;28;20882;-68
2021/08/18 01:24:14;;;;;;;19.33;9.65;;;;;;;10.75;100.00;96050.50;1027136;28;20297;-69
2021/08/18 01:24:45;;;;;;;21.17;11.25;;;;;;;10.74;100.00;96048.16;1023781;28;20030;-68
2021/08/18 01:25:15;;;;;;;21.08;10.32;;;;;;;10.73;100.00;96038.69;1027253;28;20277;-68
2021/08/18 01:25:46;;;;;;;18.17;9.60;;;;;;;10.75;100.00;96044.47;1027069;28;20480;-69
2021/08/18 01:26:16;;;;;;;20.48;11.30;;;;;;;10.74;100.00;96056.03;1027264;28;20045;-68
2021/08/18 01:26:47;;;;;;;20.25;10.70;;;;;;;10.66;100.00;96035.50;1027042;28;20015;-68
2021/08/18 01:27:17;;;;;;;22.15;10.82;;;;;;;10.75;100.00;96041.84;1031066;28;20085;-68
2021/08/18 01:27:52;;;;;;;21.95;10.02;;;;;;;10.74;100.00;96048.94;1027232;28;20455;-67
2021/08/18 01:28:28;;;;;;;20.38;10.00;;;;;;;10.75;100.00;96045.25;1023724;28;20070;-69
2021/08/18 01:28:59;;;;;;;22.02;10.05;;;;;;;10.73;100.00;96047.38;1027222;28;20370;-70
2021/08/18 01:29:30;;;;;;;19.10;9.85;;;;;;;10.73;100.00;96044.75;1027057;28;20815;-68
2021/08/18 01:30:00;;;;;;;19.70;9.77;;;;;;;10.74;100.00;96035.81;1025278;28;20510;-69
2021/08/18 01:30:31;;;;;;;18.17;9.73;;;;;;;10.74;100.00;96040.28;1022968;28;20058;-68
2021/08/18 01:31:02;;;;;;;18.98;10.25;;;;;;;10.75;100.00;96039.22;1026748;28;20035;-68
2021/08/18 01:31:32;;;;;;;17.38;9.30;;;;;;;10.75;100.00;96047.88;1029248;28;20105;-68
2021/08/18 01:32:03;;;;;;;18.13;9.60;;;;;;;10.76;100.00;96043.41;1026472;28;20035;-70
2021/08/18 01:32:56;;;;;;;18.42;10.30;;;;;;;10.75;100.00;96039.22;1030834;28;20030;-68
2021/08/18 01:33:26;;;;;;;22.30;11.73;;;;;;;10.75;100.00;96033.97;1023912;28;20078;-70
2021/08/18 01:33:58;;;;;;;19.52;10.13;;;;;;;10.75;100.00;96033.97;1029138;28;20667;-70
2021/08/18 01:34:28;;;;;;;19.85;10.07;;;;;;;10.74;100.00;96035.81;1034501;28;20467;-69
2021/08/18 01:34:59;;;;;;;19.85;10.35;;;;;;;10.74;100.00;96040.28;1037692;28;20280;-69
2021/08/18 01:35:37;;;;;;;19.67;10.50;;;;;;;10.76;100.00;96046.03;1043138;28;20115;-69
2021/08/18 01:36:07;;;;;;;22.65;11.02;;;;;;;10.67;100.00;96026.59;1039462;28;20079;-68
2021/08/18 01:36:38;;;;;;;23.27;11.00;;;;;;;10.73;100.00;96039.50;1034747;28;20785;-68
2021/08/18 01:37:08;;;;;;;17.98;9.90;;;;;;;10.76;100.00;96035.53;1031229;28;20109;-68
2021/08/18 01:37:39;;;;;;;17.83;9.82;;;;;;;10.77;100.00;96039.75;1022907;28;20031;-69
2021/08/18 01:38:10;;;;;;;20.98;10.63;;;;;;;10.70;100.00;96026.88;1027142;28;20428;-67
2021/08/18 01:38:41;;;;;;;17.98;9.90;;;;;;;10.78;100.00;96036.09;1022828;28;20061;-69
2021/08/18 01:39:11;;;;;;;21.42;10.75;;;;;;;10.79;100.00;96035.03;1023186;28;20318;-68
2021/08/18 01:39:42;;;;;;;17.38;10.00;;;;;;;10.79;100.00;96045.53;1031014;28;20027;-68
2021/08/18 01:40:13;;;;;;;22.85;10.20;;;;;;;10.73;100.00;96036.06;1030933;28;20085;-70
2021/08/18 01:40:44;;;;;;;19.60;10.50;;;;;;;10.78;100.00;96033.47;1031081;28;20420;-68
2021/08/18 01:41:15;;;;;;;17.05;9.77;;;;;;;10.79;100.00;96040.28;1035257;28;20021;-68
2021/08/18 01:41:45;;;;;;;18.70;10.27;;;;;;;10.79;100.00;96040.28;1030720;28;20507;-68
2021/08/18 01:42:16;;;;;;;20.88;11.35;;;;;;;10.73;100.00;96025.56;1030598;28;20764;-68
2021/08/18 01:42:46;;;;;;;18.98;9.98;;;;;;;10.80;100.00;96031.38;1034832;28;20030;-68
2021/08/18 01:43:18;;;;;;;20.35;10.10;;;;;;;10.78;100.00;96033.47;1035114;28;20034;-68
2021/08/18 01:43:48;;;;;;;16.30;10.13;;;;;;;10.81;100.00;96031.13;1027923;28;20018;-68
2021/08/18 01:44:22;;;;;;;22.92;10.73;;;;;;;10.82;100.00;96034.53;1028717;28;20316;-68
2021/08/18 01:44:52;;;;;;;23.88;11.13;;;;;;;10.83;100.00;96036.09;1026538;28;20034;-67
2021/08/18 01:45:25;;;;;;;18.30;10.27;;;;;;;10.77;100.00;96026.66;1021417;28;20311;-68
2021/08/18 01:45:56;;;;;;;16.75;9.63;;;;;;;10.82;100.00;96032.69;1026528;28;20027;-68
2021/08/18 01:46:26;;;;;;;19.20;10.20;;;;;;;10.77;100.00;96021.41;1023638;28;20275;-68
2021/08/18 01:46:57;;;;;;;17.90;10.35;;;;;;;10.82;100.00;96029.28;1022160;28;20019;-67
2021/08/18 01:47:27;;;;;;;19.08;10.52;;;;;;;10.82;100.00;96034.53;1022898;28;20024;-68
2021/08/18 01:47:58;;;;;;;21.55;10.80;;;;;;;10.81;100.00;96032.94;1026809;28;20089;-68
2021/08/18 01:48:29;;;;;;;20.77;10.82;;;;;;;10.84;100.00;96029.81;1026792;28;20027;-68
2021/08/18 01:49:00;;;;;;;21.17;10.52;;;;;;;10.84;100.00;96029.81;1038906;28;20025;-68
2021/08/18 01:49:30;;;;;;;21.90;10.95;;;;;;;10.84;100.00;96029.81;1039128;28;20997;-68
2021/08/18 01:50:01;;;;;;;20.25;10.65;;;;;;;10.84;100.00;96033.22;1038727;28;20033;-68
2021/08/18 01:50:31;;;;;;;22.23;10.48;;;;;;;10.86;100.00;96025.09;1030504;28;20152;-68
2021/08/18 01:51:06;;;;;;;19.02;10.55;;;;;;;10.87;100.00;96028.53;1030779;28;20080;-68
2021/08/18 01:51:36;;;;;;;22.30;10.80;;;;;;;10.85;100.00;96034.00;1027366;28;20031;-68
2021/08/18 01:52:07;;;;;;;22.52;10.95;;;;;;;10.83;100.00;96020.34;1029970;28;20335;-68
2021/08/18 01:52:37;;;;;;;20.67;11.00;;;;;;;10.88;100.00;96033.50;1034794;28;20024;-68
2021/08/18 01:53:08;;;;;;;20.00;11.02;;;;;;;10.89;100.00;96034.28;1035473;28;20034;-68
2021/08/18 01:53:44;;;;;;;21.27;9.77;;;;;;;10.86;100.00;96019.84;1034678;28;20464;-68
2021/08/18 01:54:14;;;;;;;23.48;10.75;;;;;;;10.91;100.00;96032.22;1027460;28;20014;-70
2021/08/18 01:54:45;;;;;;;20.95;11.43;;;;;;;10.90;100.00;96036.69;1022887;29;21102;-68
2021/08/18 01:55:15;;;;;;;18.80;10.52;;;;;;;10.90;100.00;96036.69;1023996;28;20023;-68
2021/08/18 01:55:46;;;;;;;19.58;11.02;;;;;;;10.91;100.00;96032.22;1026274;28;20054;-68
2021/08/18 01:56:17;;;;;;;19.27;10.73;;;;;;;10.90;100.00;96034.06;1022978;28;20031;-68
2021/08/18 01:56:47;;;;;;;19.95;11.18;;;;;;;10.89;100.00;96040.31;1030934;28;20297;-68
2021/08/18 01:57:18;;;;;;;18.25;10.35;;;;;;;10.90;100.00;96033.22;1030558;28;20073;-70
2021/08/18 01:57:48;;;;;;;26.17;12.05;;;;;;;10.91;100.00;96037.47;1034966;28;20030;-68
2021/08/18 01:58:19;;;;;;;21.15;11.13;;;;;;;10.88;100.00;96033.50;1030633;28;20022;-68
2021/08/18 01:58:49;;;;;;;20.35;10.95;;;;;;;10.88;100.00;96023.00;1022473;28;20023;-68
2021/08/18 01:59:20;;;;;;;20.48;11.13;;;;;;;10.92;100.00;96031.16;1026667;28;20027;-68
2021/08/18 01:59:50;;;;;;;19.73;10.80;;;;;;;10.85;100.00;96026.94;1022555;29;20121;-69
2021/08/18 02:00:21;;;;;;;22.35;11.23;;;;;;;10.91;100.00;96027.75;1018597;28;20081;-68
2021/08/18 02:00:51;;;;;;;24.40;11.77;;;;;;;10.91;100.00;96032.22;1022234;28;20028;-69
2021/08/18 02:01:22;;;;;;;19.75;11.48;;;;;;;10.90;100.00;96034.06;1026679;28;20030;-69
2021/08/18 02:01:52;;;;;;;23.27;11.13;;;;;;;10.91;100.00;96033.00;1026434;28;20050;-66
2021/08/18 02:02:27;;;;;;;22.17;10.70;;;;;;;10.85;100.00;96026.13;1027026;28;20115;-68
2021/08/18 02:02:57;;;;;;;20.20;10.52;;;;;;;10.85;100.00;96026.13;1023152;28;20029;-68
2021/08/18 02:03:27;;;;;;;20.17;11.27;;;;;;;10.92;100.00;96031.94;1023623;28;20281;-67
2021/08/18 02:03:58;;;;;;;20.58;11.27;;;;;;;10.90;100.00;96030.59;1028552;28;20023;-70
2021/08/18 02:04:28;;;;;;;19.90;10.73;;;;;;;10.91;100.00;96030.38;1022910;28;20065;-69
2021/08/18 02:04:59;;;;;;;21.70;11.27;;;;;;;10.84;100.00;96017.47;1026785;28;20073;-69
2021/08/18 02:05:29;;;;;;;20.88;11.38;;;;;;;10.94;100.00;96036.94;1027260;28;20031;-68
2021/08/18 02:06:00;;;;;;;21.70;12.02;;;;;;;10.94;100.00;96036.94;1030572;28;20484;-68
2021/08/18 02:06:32;;;;;;;21.92;11.68;;;;;;;10.91;100.00;96032.22;1026549;28;20021;-67
2021/08/18 02:07:03;;;;;;;22.27;11.57;;;;;;;10.86;100.00;96027.72;1022747;29;20110;-67
2021/08/18 02:07:34;;;;;;;22.73;10.73;;;;;;;10.93;100.00;96037.97;1026647;28;20321;-68
2021/08/18 02:08:05;;;;;;;20.30;10.82;;;;;;;10.78;100.00;96008.00;1025887;28;20278;-68
2021/08/18 02:08:35;;;;;;;22.80;11.35;;;;;;;10.93;100.00;96030.91;1023478;28;20110;-68
2021/08/18 02:09:08;;;;;;;22.55;11.70;;;;;;;10.96;100.00;96038.25;1026021;28;20034;-67
2021/08/18 02:09:39;;;;;;;22.27;11.65;;;;;;;10.98;100.00;96038.78;1026674;28;20031;-68
2021/08/18 02:10:11;;;;;;;22.75;11.20;;;;;;;10.94;100.00;96027.22;1026608;28;20274;-68
2021/08/18 02:10:42;;;;;;;24.73;11.80;;;;;;;10.97;100.00;96031.19;1024408;28;20041;-69
2021/08/18 02:11:12;;;;;;;22.38;11.55;;;;;;;10.98;100.00;96038.00;1030832;28;20341;-68
2021/08/18 02:11:43;;;;;;;24.92;11.93;;;;;;;10.97;100.00;96026.72;1035550;28;20034;-68
2021/08/18 02:12:13;;;;;;;19.73;10.70;;;;;;;10.97;100.00;96034.59;1034784;28;20022;-68
2021/08/18 02:12:44;;;;;;;22.77;11.95;;;;;;;10.98;100.00;96033.53;1038923;28;20025;-69
2021/08/18 02:13:14;;;;;;;23.20;11.40;;;;;;;10.97;100.00;96029.34;1028269;28;20026;-69
2021/08/18 02:13:45;;;;;;;21.15;11.85;;;;;;;11.00;100.00;96031.47;1030408;28;20030;-68
2021/08/18 02:14:15;;;;;;;23.80;11.50;;;;;;;10.99;100.00;96029.84;1030600;28;20499;-68
2021/08/18 02:14:46;;;;;;;27.95;13.25;;;;;;;10.99;100.00;96029.84;1030368;28;20034;-68
2021/08/18 02:15:18;;;;;;;23.50;11.90;;;;;;;11.00;100.00;96028.84;1030464;28;20074;-68
2021/08/18 02:15:49;;;;;;;25.35;12.50;;;;;;;10.93;100.00;96020.41;1031141;28;20939;-68
2021/08/18 02:16:19;;;;;;;22.83;11.65;;;;;;;10.99;100.00;96024.59;1026531;28;20282;-68
2021/08/18 02:16:50;;;;;;;25.52;12.85;;;;;;;11.03;100.00;96028.31;1033788;28;20452;-68
2021/08/18 02:17:20;;;;;;;28.55;12.70;;;;;;;11.05;100.00;96038.56;1030719;28;20046;-68
2021/08/18 02:17:51;;;;;;;24.52;12.38;;;;;;;11.04;100.00;96027.25;1034322;28;20036;-68
2021/08/18 02:18:21;;;;;;;21.10;12.20;;;;;;;11.00;100.00;96020.97;1030693;28;20045;-69
2021/08/18 02:18:52;;;;;;;27.92;12.60;;;;;;;11.06;100.00;96027.78;1020886;29;20043;-65
2021/08/18 02:19:22;;;;;;;24.83;11.98;;;;;;;11.07;100.00;96029.38;1021595;28;20066;-68
2021/08/18 02:19:53;;;;;;;26.65;12.32;;;;;;;11.06;100.00;96025.16;1023517;28;20050;-68
2021/08/18 02:20:26;;;;;;;21.42;11.80;;;;;;;11.03;100.00;96019.63;1022977;28;20032;-68
2021/08/18 02:20:56;;;;;;;21.80;11.48;;;;;;;11.01;100.00;96021.75;1025302;28;20441;-69
2021/08/18 02:21:28;;;;;;;21.13;11.85;;;;;;;11.06;100.00;96030.41;1022537;29;20281;-68
2021/08/18 02:21:58;;;;;;;23.92;12.32;;;;;;;11.08;100.00;96023.06;1024383;28;20512;-68